sensor_id;sensor_type;location;lat;lon;timestamp;P1;durP1;ratioP1;P2;durP2;ratioP2
5137;SDS011;53959;53.626;11.410;2023-05-10T00:00:10;11.73;;;2.93;;
5137;SDS011;53959;53.626;11.410;2023-05-10T00:02:39;2.90;;;2.70;;
5137;SDS011;53959;53.626;11.410;2023-05-10T00:05:05;12.67;;;3.30;;
5137;SDS011;53959;53.626;11.410;2023-05-10T00:07:31;10.53;;;3.33;;
5137;SDS011;53959;53.626;11.410;2023-05-10T00:09:57;4.40;;;2.60;;
5137;SDS011;53959;53.626;11.410;2023-05-10T00:12:22;8.20;;;3.33;;
5137;SDS011;53959;53.626;11.410;2023-05-10T00:14:48;7.23;;;3.40;;
5137;SDS011;53959;53.626;11.410;2023-05-10T00:17:13;3.67;;;2.97;;
5137;SDS011;53959;53.626;11.410;2023-05-10T00:19:38;6.93;;;2.57;;
5137;SDS011;53959;53.626;11.410;2023-05-10T00:22:04;9.43;;;3.00;;
5137;SDS011;53959;53.626;11.410;2023-05-10T00:24:29;5.33;;;2.83;;
5137;SDS011;53959;53.626;11.410;2023-05-10T00:26:54;3.80;;;2.90;;
5137;SDS011;53959;53.626;11.410;2023-05-10T00:29:20;5.53;;;3.33;;
5137;SDS011;53959;53.626;11.410;2023-05-10T00:31:45;4.30;;;3.13;;
5137;SDS011;53959;53.626;11.410;2023-05-10T00:34:10;7.30;;;3.10;;
5137;SDS011;53959;53.626;11.410;2023-05-10T00:36:36;5.70;;;2.80;;
5137;SDS011;53959;53.626;11.410;2023-05-10T00:39:01;16.70;;;5.10;;
5137;SDS011;53959;53.626;11.410;2023-05-10T00:41:28;4.97;;;3.53;;
5137;SDS011;53959;53.626;11.410;2023-05-10T00:43:54;5.03;;;3.00;;
5137;SDS011;53959;53.626;11.410;2023-05-10T00:46:20;4.77;;;2.70;;
5137;SDS011;53959;53.626;11.410;2023-05-10T00:48:46;8.33;;;3.80;;
5137;SDS011;53959;53.626;11.410;2023-05-10T00:51:12;7.77;;;3.43;;
5137;SDS011;53959;53.626;11.410;2023-05-10T00:53:38;7.20;;;3.53;;
5137;SDS011;53959;53.626;11.410;2023-05-10T00:56:04;4.00;;;3.40;;
5137;SDS011;53959;53.626;11.410;2023-05-10T00:58:30;6.17;;;3.23;;
5137;SDS011;53959;53.626;11.410;2023-05-10T01:00:56;3.70;;;3.17;;
5137;SDS011;53959;53.626;11.410;2023-05-10T01:03:22;6.97;;;4.60;;
5137;SDS011;53959;53.626;11.410;2023-05-10T01:05:48;6.23;;;3.80;;
5137;SDS011;53959;53.626;11.410;2023-05-10T01:08:13;6.03;;;3.07;;
5137;SDS011;53959;53.626;11.410;2023-05-10T01:10:39;7.80;;;3.10;;
5137;SDS011;53959;53.626;11.410;2023-05-10T01:13:05;4.47;;;3.50;;
5137;SDS011;53959;53.626;11.410;2023-05-10T01:15:30;7.00;;;3.40;;
5137;SDS011;53959;53.626;11.410;2023-05-10T01:17:56;8.20;;;3.10;;
5137;SDS011;53959;53.626;11.410;2023-05-10T01:20:22;3.33;;;3.03;;
5137;SDS011;53959;53.626;11.410;2023-05-10T01:31:29;4.37;;;3.67;;
5137;SDS011;53959;53.626;11.410;2023-05-10T01:34:08;7.10;;;2.87;;
5137;SDS011;53959;53.626;11.410;2023-05-10T01:36:40;5.50;;;3.77;;
5137;SDS011;53959;53.626;11.410;2023-05-10T01:39:17;6.40;;;3.63;;
5137;SDS011;53959;53.626;11.410;2023-05-10T01:41:54;7.80;;;3.20;;
5137;SDS011;53959;53.626;11.410;2023-05-10T01:47:31;5.37;;;3.70;;
5137;SDS011;53959;53.626;11.410;2023-05-10T01:50:15;7.40;;;3.47;;
5137;SDS011;53959;53.626;11.410;2023-05-10T01:52:44;3.90;;;3.20;;
5137;SDS011;53959;53.626;11.410;2023-05-10T01:55:18;5.20;;;3.73;;
5137;SDS011;53959;53.626;11.410;2023-05-10T01:57:46;5.77;;;3.93;;
5137;SDS011;53959;53.626;11.410;2023-05-10T02:00:16;6.00;;;4.03;;
5137;SDS011;53959;53.626;11.410;2023-05-10T02:02:47;4.47;;;4.07;;
5137;SDS011;53959;53.626;11.410;2023-05-10T02:05:15;4.40;;;3.90;;
5137;SDS011;53959;53.626;11.410;2023-05-10T02:07:42;8.63;;;3.97;;
5137;SDS011;53959;53.626;11.410;2023-05-10T02:10:09;5.80;;;4.23;;
5137;SDS011;53959;53.626;11.410;2023-05-10T02:12:36;4.63;;;4.13;;
5137;SDS011;53959;53.626;11.410;2023-05-10T02:15:04;5.37;;;3.97;;
5137;SDS011;53959;53.626;11.410;2023-05-10T02:17:31;4.90;;;3.80;;
5137;SDS011;53959;53.626;11.410;2023-05-10T02:19:58;12.23;;;4.17;;
5137;SDS011;53959;53.626;11.410;2023-05-10T02:22:25;4.23;;;3.83;;
5137;SDS011;53959;53.626;11.410;2023-05-10T02:24:52;12.00;;;4.23;;
5137;SDS011;53959;53.626;11.410;2023-05-10T02:27:21;5.03;;;3.53;;
5137;SDS011;53959;53.626;11.410;2023-05-10T02:29:48;9.60;;;4.03;;
5137;SDS011;53959;53.626;11.410;2023-05-10T02:32:15;9.43;;;3.90;;
5137;SDS011;53959;53.626;11.410;2023-05-10T02:34:42;7.00;;;3.77;;
5137;SDS011;53959;53.626;11.410;2023-05-10T02:37:10;8.20;;;3.67;;
5137;SDS011;53959;53.626;11.410;2023-05-10T02:39:38;6.20;;;3.87;;
5137;SDS011;53959;53.626;11.410;2023-05-10T02:42:08;4.87;;;4.20;;
5137;SDS011;53959;53.626;11.410;2023-05-10T02:44:40;6.70;;;4.13;;
5137;SDS011;53959;53.626;11.410;2023-05-10T02:47:07;7.77;;;4.23;;
5137;SDS011;53959;53.626;11.410;2023-05-10T02:49:32;5.67;;;4.10;;
5137;SDS011;53959;53.626;11.410;2023-05-10T02:52:00;7.40;;;3.93;;
5137;SDS011;53959;53.626;11.410;2023-05-10T02:54:29;8.20;;;4.03;;
5137;SDS011;53959;53.626;11.410;2023-05-10T02:56:58;3.93;;;3.53;;
5137;SDS011;53959;53.626;11.410;2023-05-10T02:59:25;10.93;;;4.10;;
5137;SDS011;53959;53.626;11.410;2023-05-10T03:01:52;3.70;;;3.40;;
5137;SDS011;53959;53.626;11.410;2023-05-10T03:04:17;3.63;;;3.43;;
5137;SDS011;53959;53.626;11.410;2023-05-10T03:06:43;8.10;;;5.33;;
5137;SDS011;53959;53.626;11.410;2023-05-10T03:09:09;5.33;;;3.87;;
5137;SDS011;53959;53.626;11.410;2023-05-10T03:14:29;4.80;;;4.23;;
5137;SDS011;53959;53.626;11.410;2023-05-10T03:17:15;5.43;;;4.27;;
5137;SDS011;53959;53.626;11.410;2023-05-10T03:19:58;8.23;;;4.60;;
5137;SDS011;53959;53.626;11.410;2023-05-10T03:22:37;4.80;;;4.20;;
5137;SDS011;53959;53.626;11.410;2023-05-10T03:25:06;6.37;;;4.70;;
5137;SDS011;53959;53.626;11.410;2023-05-10T03:27:36;11.37;;;4.67;;
5137;SDS011;53959;53.626;11.410;2023-05-10T03:30:05;5.80;;;4.50;;
5137;SDS011;53959;53.626;11.410;2023-05-10T03:32:32;8.03;;;4.93;;
5137;SDS011;53959;53.626;11.410;2023-05-10T03:35:00;5.03;;;4.57;;
5137;SDS011;53959;53.626;11.410;2023-05-10T03:37:26;6.40;;;4.80;;
5137;SDS011;53959;53.626;11.410;2023-05-10T03:39:52;4.83;;;3.80;;
5137;SDS011;53959;53.626;11.410;2023-05-10T03:42:17;4.83;;;4.40;;
5137;SDS011;53959;53.626;11.410;2023-05-10T03:44:43;7.20;;;4.10;;
5137;SDS011;53959;53.626;11.410;2023-05-10T03:47:08;4.57;;;4.17;;
5137;SDS011;53959;53.626;11.410;2023-05-10T03:49:33;5.17;;;4.40;;
5137;SDS011;53959;53.626;11.410;2023-05-10T03:51:59;7.43;;;4.43;;
5137;SDS011;53959;53.626;11.410;2023-05-10T03:54:25;4.40;;;4.03;;
5137;SDS011;53959;53.626;11.410;2023-05-10T03:56:51;4.23;;;3.83;;
5137;SDS011;53959;53.626;11.410;2023-05-10T03:59:18;5.80;;;5.17;;
5137;SDS011;53959;53.626;11.410;2023-05-10T04:01:43;5.27;;;4.67;;
5137;SDS011;53959;53.626;11.410;2023-05-10T04:04:08;7.13;;;5.20;;
5137;SDS011;53959;53.626;11.410;2023-05-10T04:06:34;6.20;;;4.80;;
5137;SDS011;53959;53.626;11.410;2023-05-10T04:09:00;9.00;;;5.03;;
5137;SDS011;53959;53.626;11.410;2023-05-10T04:11:28;13.20;;;5.37;;
5137;SDS011;53959;53.626;11.410;2023-05-10T04:13:54;6.17;;;4.33;;
5137;SDS011;53959;53.626;11.410;2023-05-10T04:16:19;6.03;;;4.33;;
5137;SDS011;53959;53.626;11.410;2023-05-10T04:18:45;4.33;;;4.03;;
5137;SDS011;53959;53.626;11.410;2023-05-10T04:21:11;5.83;;;4.57;;
5137;SDS011;53959;53.626;11.410;2023-05-10T04:23:37;9.17;;;5.40;;
5137;SDS011;53959;53.626;11.410;2023-05-10T04:26:03;4.97;;;4.17;;
5137;SDS011;53959;53.626;11.410;2023-05-10T04:28:28;9.80;;;4.97;;
5137;SDS011;53959;53.626;11.410;2023-05-10T04:31:00;4.43;;;4.13;;
5137;SDS011;53959;53.626;11.410;2023-05-10T04:33:26;4.47;;;4.07;;
5137;SDS011;53959;53.626;11.410;2023-05-10T04:35:51;5.10;;;4.43;;
5137;SDS011;53959;53.626;11.410;2023-05-10T04:38:16;8.70;;;4.43;;
5137;SDS011;53959;53.626;11.410;2023-05-10T04:40:41;10.43;;;4.43;;
5137;SDS011;53959;53.626;11.410;2023-05-10T04:43:07;4.33;;;3.93;;
5137;SDS011;53959;53.626;11.410;2023-05-10T04:45:32;5.73;;;4.67;;
5137;SDS011;53959;53.626;11.410;2023-05-10T04:47:57;6.20;;;4.97;;
5137;SDS011;53959;53.626;11.410;2023-05-10T04:50:23;6.80;;;4.73;;
5137;SDS011;53959;53.626;11.410;2023-05-10T04:52:48;5.17;;;4.10;;
5137;SDS011;53959;53.626;11.410;2023-05-10T04:55:13;4.83;;;4.33;;
5137;SDS011;53959;53.626;11.410;2023-05-10T04:57:39;6.10;;;4.77;;
5137;SDS011;53959;53.626;11.410;2023-05-10T05:00:04;4.90;;;4.40;;
5137;SDS011;53959;53.626;11.410;2023-05-10T05:02:30;5.50;;;4.53;;
5137;SDS011;53959;53.626;11.410;2023-05-10T05:04:56;5.20;;;4.70;;
5137;SDS011;53959;53.626;11.410;2023-05-10T05:07:22;6.07;;;5.10;;
5137;SDS011;53959;53.626;11.410;2023-05-10T05:09:48;5.23;;;4.10;;
5137;SDS011;53959;53.626;11.410;2023-05-10T05:12:13;5.70;;;4.50;;
5137;SDS011;53959;53.626;11.410;2023-05-10T05:14:39;8.53;;;5.33;;
5137;SDS011;53959;53.626;11.410;2023-05-10T05:17:05;7.50;;;5.00;;
5137;SDS011;53959;53.626;11.410;2023-05-10T05:19:30;4.90;;;4.23;;
5137;SDS011;53959;53.626;11.410;2023-05-10T05:21:56;4.90;;;4.20;;
5137;SDS011;53959;53.626;11.410;2023-05-10T05:24:21;5.23;;;4.40;;
5137;SDS011;53959;53.626;11.410;2023-05-10T05:26:47;8.90;;;4.90;;
5137;SDS011;53959;53.626;11.410;2023-05-10T05:29:12;6.17;;;4.90;;
5137;SDS011;53959;53.626;11.410;2023-05-10T05:31:37;4.73;;;4.33;;
5137;SDS011;53959;53.626;11.410;2023-05-10T05:34:03;7.23;;;5.10;;
5137;SDS011;53959;53.626;11.410;2023-05-10T05:36:28;5.67;;;5.00;;
5137;SDS011;53959;53.626;11.410;2023-05-10T05:38:53;7.03;;;5.20;;
5137;SDS011;53959;53.626;11.410;2023-05-10T05:41:19;9.17;;;4.73;;
5137;SDS011;53959;53.626;11.410;2023-05-10T05:43:44;7.57;;;4.03;;
5137;SDS011;53959;53.626;11.410;2023-05-10T05:46:10;5.43;;;4.53;;
5137;SDS011;53959;53.626;11.410;2023-05-10T05:48:35;9.17;;;4.90;;
5137;SDS011;53959;53.626;11.410;2023-05-10T05:51:00;9.70;;;4.63;;
5137;SDS011;53959;53.626;11.410;2023-05-10T05:53:26;7.30;;;4.60;;
5137;SDS011;53959;53.626;11.410;2023-05-10T05:55:52;6.00;;;4.60;;
5137;SDS011;53959;53.626;11.410;2023-05-10T05:58:19;7.50;;;4.73;;
5137;SDS011;53959;53.626;11.410;2023-05-10T06:00:45;5.70;;;4.00;;
5137;SDS011;53959;53.626;11.410;2023-05-10T06:03:10;12.00;;;5.10;;
5137;SDS011;53959;53.626;11.410;2023-05-10T06:05:35;7.43;;;4.33;;
5137;SDS011;53959;53.626;11.410;2023-05-10T06:08:01;6.77;;;5.07;;
5137;SDS011;53959;53.626;11.410;2023-05-10T06:10:26;8.97;;;4.30;;
5137;SDS011;53959;53.626;11.410;2023-05-10T06:12:51;8.73;;;4.30;;
5137;SDS011;53959;53.626;11.410;2023-05-10T06:15:18;11.83;;;4.47;;
5137;SDS011;53959;53.626;11.410;2023-05-10T06:17:43;5.70;;;3.70;;
5137;SDS011;53959;53.626;11.410;2023-05-10T06:20:09;5.60;;;4.13;;
5137;SDS011;53959;53.626;11.410;2023-05-10T06:22:35;4.30;;;3.90;;
5137;SDS011;53959;53.626;11.410;2023-05-10T06:25:00;5.40;;;4.17;;
5137;SDS011;53959;53.626;11.410;2023-05-10T06:27:26;4.20;;;3.80;;
5137;SDS011;53959;53.626;11.410;2023-05-10T06:29:51;3.93;;;3.47;;
5137;SDS011;53959;53.626;11.410;2023-05-10T06:32:16;4.63;;;4.23;;
5137;SDS011;53959;53.626;11.410;2023-05-10T06:34:42;4.37;;;3.50;;
5137;SDS011;53959;53.626;11.410;2023-05-10T06:37:08;4.40;;;3.40;;
5137;SDS011;53959;53.626;11.410;2023-05-10T06:39:33;4.63;;;3.60;;
5137;SDS011;53959;53.626;11.410;2023-05-10T06:41:59;11.87;;;3.40;;
5137;SDS011;53959;53.626;11.410;2023-05-10T06:44:30;8.80;;;4.07;;
5137;SDS011;53959;53.626;11.410;2023-05-10T06:46:56;5.63;;;3.17;;
5137;SDS011;53959;53.626;11.410;2023-05-10T06:49:21;3.60;;;3.40;;
5137;SDS011;53959;53.626;11.410;2023-05-10T06:51:47;11.47;;;3.83;;
5137;SDS011;53959;53.626;11.410;2023-05-10T06:54:13;4.53;;;4.03;;
5137;SDS011;53959;53.626;11.410;2023-05-10T06:56:38;4.50;;;4.10;;
5137;SDS011;53959;53.626;11.410;2023-05-10T06:59:04;4.53;;;3.67;;
5137;SDS011;53959;53.626;11.410;2023-05-10T07:01:29;3.33;;;3.13;;
5137;SDS011;53959;53.626;11.410;2023-05-10T07:03:54;11.00;;;4.03;;
5137;SDS011;53959;53.626;11.410;2023-05-10T07:06:20;3.77;;;2.80;;
5137;SDS011;53959;53.626;11.410;2023-05-10T07:08:45;7.37;;;4.23;;
5137;SDS011;53959;53.626;11.410;2023-05-10T07:11:11;4.27;;;3.80;;
5137;SDS011;53959;53.626;11.410;2023-05-10T07:13:36;3.73;;;3.00;;
5137;SDS011;53959;53.626;11.410;2023-05-10T07:16:04;8.07;;;3.90;;
5137;SDS011;53959;53.626;11.410;2023-05-10T07:18:31;4.27;;;3.50;;
5137;SDS011;53959;53.626;11.410;2023-05-10T07:20:56;6.20;;;3.50;;
5137;SDS011;53959;53.626;11.410;2023-05-10T07:23:22;3.80;;;3.53;;
5137;SDS011;53959;53.626;11.410;2023-05-10T07:25:47;8.60;;;4.37;;
5137;SDS011;53959;53.626;11.410;2023-05-10T07:28:14;3.23;;;3.00;;
5137;SDS011;53959;53.626;11.410;2023-05-10T07:30:40;5.20;;;3.57;;
5137;SDS011;53959;53.626;11.410;2023-05-10T07:33:06;5.07;;;4.17;;
5137;SDS011;53959;53.626;11.410;2023-05-10T07:35:33;4.20;;;3.07;;
5137;SDS011;53959;53.626;11.410;2023-05-10T07:37:59;5.20;;;3.60;;
5137;SDS011;53959;53.626;11.410;2023-05-10T07:40:25;4.37;;;3.27;;
5137;SDS011;53959;53.626;11.410;2023-05-10T07:42:50;3.77;;;3.47;;
5137;SDS011;53959;53.626;11.410;2023-05-10T07:45:16;6.47;;;3.47;;
5137;SDS011;53959;53.626;11.410;2023-05-10T07:47:41;13.13;;;3.90;;
5137;SDS011;53959;53.626;11.410;2023-05-10T07:50:07;3.17;;;2.97;;
5137;SDS011;53959;53.626;11.410;2023-05-10T07:52:32;7.10;;;3.13;;
5137;SDS011;53959;53.626;11.410;2023-05-10T07:54:58;4.43;;;3.27;;
5137;SDS011;53959;53.626;11.410;2023-05-10T07:57:23;3.53;;;3.23;;
5137;SDS011;53959;53.626;11.410;2023-05-10T07:59:48;16.03;;;3.00;;
5137;SDS011;53959;53.626;11.410;2023-05-10T08:02:14;4.43;;;3.53;;
5137;SDS011;53959;53.626;11.410;2023-05-10T08:04:39;6.80;;;3.73;;
5137;SDS011;53959;53.626;11.410;2023-05-10T08:07:05;3.30;;;3.10;;
5137;SDS011;53959;53.626;11.410;2023-05-10T08:09:30;3.60;;;3.30;;
5137;SDS011;53959;53.626;11.410;2023-05-10T08:11:55;6.77;;;3.60;;
5137;SDS011;53959;53.626;11.410;2023-05-10T08:14:21;7.43;;;3.73;;
5137;SDS011;53959;53.626;11.410;2023-05-10T08:16:46;4.17;;;3.80;;
5137;SDS011;53959;53.626;11.410;2023-05-10T08:19:12;5.20;;;3.00;;
5137;SDS011;53959;53.626;11.410;2023-05-10T08:21:37;3.97;;;3.13;;
5137;SDS011;53959;53.626;11.410;2023-05-10T08:24:03;10.63;;;3.20;;
5137;SDS011;53959;53.626;11.410;2023-05-10T08:26:28;4.13;;;3.63;;
5137;SDS011;53959;53.626;11.410;2023-05-10T08:28:54;4.00;;;3.60;;
5137;SDS011;53959;53.626;11.410;2023-05-10T08:31:19;3.70;;;3.40;;
5137;SDS011;53959;53.626;11.410;2023-05-10T08:33:45;6.10;;;3.87;;
5137;SDS011;53959;53.626;11.410;2023-05-10T08:36:10;9.33;;;3.23;;
5137;SDS011;53959;53.626;11.410;2023-05-10T08:38:37;4.20;;;3.80;;
5137;SDS011;53959;53.626;11.410;2023-05-10T08:41:02;3.77;;;3.30;;
5137;SDS011;53959;53.626;11.410;2023-05-10T08:43:29;5.40;;;3.53;;
5137;SDS011;53959;53.626;11.410;2023-05-10T08:45:54;5.90;;;3.87;;
5137;SDS011;53959;53.626;11.410;2023-05-10T08:48:22;10.23;;;3.87;;
5137;SDS011;53959;53.626;11.410;2023-05-10T08:50:49;4.07;;;3.77;;
5137;SDS011;53959;53.626;11.410;2023-05-10T08:53:19;11.23;;;3.47;;
5137;SDS011;53959;53.626;11.410;2023-05-10T08:55:46;3.83;;;3.40;;
5137;SDS011;53959;53.626;11.410;2023-05-10T08:58:12;3.70;;;3.40;;
5137;SDS011;53959;53.626;11.410;2023-05-10T09:00:38;3.17;;;2.87;;
5137;SDS011;53959;53.626;11.410;2023-05-10T09:03:04;4.53;;;3.50;;
5137;SDS011;53959;53.626;11.410;2023-05-10T09:05:31;5.03;;;3.17;;
5137;SDS011;53959;53.626;11.410;2023-05-10T09:07:57;3.67;;;3.37;;
5137;SDS011;53959;53.626;11.410;2023-05-10T09:10:23;4.20;;;3.80;;
5137;SDS011;53959;53.626;11.410;2023-05-10T09:12:52;5.43;;;3.77;;
5137;SDS011;53959;53.626;11.410;2023-05-10T09:15:19;4.23;;;3.83;;
5137;SDS011;53959;53.626;11.410;2023-05-10T09:17:45;9.43;;;3.37;;
5137;SDS011;53959;53.626;11.410;2023-05-10T09:20:11;7.33;;;3.43;;
5137;SDS011;53959;53.626;11.410;2023-05-10T09:22:36;4.47;;;3.73;;
5137;SDS011;53959;53.626;11.410;2023-05-10T09:25:09;3.60;;;3.40;;
5137;SDS011;53959;53.626;11.410;2023-05-10T09:27:37;3.50;;;3.30;;
5137;SDS011;53959;53.626;11.410;2023-05-10T09:30:04;6.00;;;3.57;;
5137;SDS011;53959;53.626;11.410;2023-05-10T09:32:37;5.90;;;3.30;;
5137;SDS011;53959;53.626;11.410;2023-05-10T09:35:10;21.30;;;4.17;;
5137;SDS011;53959;53.626;11.410;2023-05-10T09:37:36;5.70;;;3.53;;
5137;SDS011;53959;53.626;11.410;2023-05-10T09:40:04;8.40;;;4.00;;
5137;SDS011;53959;53.626;11.410;2023-05-10T09:42:31;8.30;;;4.27;;
5137;SDS011;53959;53.626;11.410;2023-05-10T09:45:00;6.47;;;3.73;;
5137;SDS011;53959;53.626;11.410;2023-05-10T09:47:26;4.57;;;3.30;;
5137;SDS011;53959;53.626;11.410;2023-05-10T09:49:52;10.10;;;4.17;;
5137;SDS011;53959;53.626;11.410;2023-05-10T09:52:18;4.37;;;3.73;;
5137;SDS011;53959;53.626;11.410;2023-05-10T09:54:52;3.93;;;3.57;;
5137;SDS011;53959;53.626;11.410;2023-05-10T09:57:20;3.93;;;3.53;;
5137;SDS011;53959;53.626;11.410;2023-05-10T09:59:46;4.87;;;4.43;;
5137;SDS011;53959;53.626;11.410;2023-05-10T10:02:12;4.40;;;3.47;;
5137;SDS011;53959;53.626;11.410;2023-05-10T10:04:39;7.70;;;4.53;;
5137;SDS011;53959;53.626;11.410;2023-05-10T10:07:05;4.27;;;3.70;;
5137;SDS011;53959;53.626;11.410;2023-05-10T10:09:30;4.60;;;3.80;;
5137;SDS011;53959;53.626;11.410;2023-05-10T10:11:56;4.40;;;4.00;;
5137;SDS011;53959;53.626;11.410;2023-05-10T10:14:23;4.43;;;3.17;;
5137;SDS011;53959;53.626;11.410;2023-05-10T10:16:49;3.50;;;3.30;;
5137;SDS011;53959;53.626;11.410;2023-05-10T10:19:16;4.17;;;3.77;;
5137;SDS011;53959;53.626;11.410;2023-05-10T10:21:43;3.67;;;3.37;;
5137;SDS011;53959;53.626;11.410;2023-05-10T10:24:08;5.53;;;3.67;;
5137;SDS011;53959;53.626;11.410;2023-05-10T10:26:34;7.07;;;3.50;;
5137;SDS011;53959;53.626;11.410;2023-05-10T10:29:16;6.37;;;3.60;;
5137;SDS011;53959;53.626;11.410;2023-05-10T10:32:06;3.53;;;3.23;;
5137;SDS011;53959;53.626;11.410;2023-05-10T10:34:39;4.83;;;3.47;;
5137;SDS011;53959;53.626;11.410;2023-05-10T10:37:05;3.57;;;3.27;;
5137;SDS011;53959;53.626;11.410;2023-05-10T10:39:31;9.77;;;4.60;;
5137;SDS011;53959;53.626;11.410;2023-05-10T10:41:57;4.97;;;3.47;;
5137;SDS011;53959;53.626;11.410;2023-05-10T10:52:23;12.57;;;4.03;;
5137;SDS011;53959;53.626;11.410;2023-05-10T10:55:05;3.30;;;3.10;;
5137;SDS011;53959;53.626;11.410;2023-05-10T11:05:38;7.13;;;3.33;;
5137;SDS011;53959;53.626;11.410;2023-05-10T11:08:27;4.63;;;4.23;;
5137;SDS011;53959;53.626;11.410;2023-05-10T11:13:31;10.30;;;3.70;;
5137;SDS011;53959;53.626;11.410;2023-05-10T11:15:57;3.80;;;3.60;;
5137;SDS011;53959;53.626;11.410;2023-05-10T11:18:27;3.80;;;3.50;;
5137;SDS011;53959;53.626;11.410;2023-05-10T11:20:57;7.30;;;3.50;;
5137;SDS011;53959;53.626;11.410;2023-05-10T11:23:47;6.50;;;3.87;;
5137;SDS011;53959;53.626;11.410;2023-05-10T11:26:21;9.67;;;3.83;;
5137;SDS011;53959;53.626;11.410;2023-05-10T11:28:50;4.87;;;4.30;;
5137;SDS011;53959;53.626;11.410;2023-05-10T11:31:18;6.23;;;3.90;;
5137;SDS011;53959;53.626;11.410;2023-05-10T11:33:45;8.73;;;4.50;;
5137;SDS011;53959;53.626;11.410;2023-05-10T11:36:16;9.97;;;3.50;;
5137;SDS011;53959;53.626;11.410;2023-05-10T11:38:43;9.90;;;4.43;;
5137;SDS011;53959;53.626;11.410;2023-05-10T11:41:09;7.67;;;3.60;;
5137;SDS011;53959;53.626;11.410;2023-05-10T11:43:36;6.90;;;3.87;;
5137;SDS011;53959;53.626;11.410;2023-05-10T11:46:04;4.07;;;3.67;;
5137;SDS011;53959;53.626;11.410;2023-05-10T11:48:31;4.57;;;4.10;;
5137;SDS011;53959;53.626;11.410;2023-05-10T11:50:56;5.67;;;3.90;;
5137;SDS011;53959;53.626;11.410;2023-05-10T11:53:23;6.60;;;4.00;;
5137;SDS011;53959;53.626;11.410;2023-05-10T11:55:48;3.93;;;3.50;;
5137;SDS011;53959;53.626;11.410;2023-05-10T11:58:13;5.73;;;3.83;;
5137;SDS011;53959;53.626;11.410;2023-05-10T12:00:39;4.30;;;3.90;;
5137;SDS011;53959;53.626;11.410;2023-05-10T12:03:04;12.77;;;4.33;;
5137;SDS011;53959;53.626;11.410;2023-05-10T12:05:33;15.60;;;4.10;;
5137;SDS011;53959;53.626;11.410;2023-05-10T12:08:13;5.10;;;4.23;;
5137;SDS011;53959;53.626;11.410;2023-05-10T12:10:39;4.63;;;3.50;;
5137;SDS011;53959;53.626;11.410;2023-05-10T12:13:05;6.60;;;3.40;;
5137;SDS011;53959;53.626;11.410;2023-05-10T12:15:32;7.33;;;3.63;;
5137;SDS011;53959;53.626;11.410;2023-05-10T12:17:57;3.73;;;3.43;;
5137;SDS011;53959;53.626;11.410;2023-05-10T12:20:23;4.17;;;3.47;;
5137;SDS011;53959;53.626;11.410;2023-05-10T12:25:16;3.70;;;3.40;;
5137;SDS011;53959;53.626;11.410;2023-05-10T12:27:47;5.37;;;4.23;;
5137;SDS011;53959;53.626;11.410;2023-05-10T12:30:26;7.10;;;3.60;;
5137;SDS011;53959;53.626;11.410;2023-05-10T12:32:53;5.87;;;3.80;;
5137;SDS011;53959;53.626;11.410;2023-05-10T12:35:24;4.33;;;4.00;;
5137;SDS011;53959;53.626;11.410;2023-05-10T12:37:50;5.07;;;4.17;;
5137;SDS011;53959;53.626;11.410;2023-05-10T12:40:15;9.53;;;3.50;;
5137;SDS011;53959;53.626;11.410;2023-05-10T12:42:41;3.93;;;3.60;;
5137;SDS011;53959;53.626;11.410;2023-05-10T12:45:06;5.40;;;3.80;;
5137;SDS011;53959;53.626;11.410;2023-05-10T12:47:33;4.13;;;3.67;;
5137;SDS011;53959;53.626;11.410;2023-05-10T12:49:59;5.20;;;3.53;;
5137;SDS011;53959;53.626;11.410;2023-05-10T12:52:26;4.70;;;4.30;;
5137;SDS011;53959;53.626;11.410;2023-05-10T12:54:52;6.27;;;3.90;;
5137;SDS011;53959;53.626;11.410;2023-05-10T12:57:18;5.63;;;3.60;;
5137;SDS011;53959;53.626;11.410;2023-05-10T12:59:43;4.03;;;3.70;;
5137;SDS011;53959;53.626;11.410;2023-05-10T13:02:08;3.87;;;3.57;;
5137;SDS011;53959;53.626;11.410;2023-05-10T13:04:34;4.23;;;3.83;;
5137;SDS011;53959;53.626;11.410;2023-05-10T13:07:02;4.10;;;3.80;;
5137;SDS011;53959;53.626;11.410;2023-05-10T13:09:27;4.30;;;3.97;;
5137;SDS011;53959;53.626;11.410;2023-05-10T13:11:56;3.57;;;3.30;;
5137;SDS011;53959;53.626;11.410;2023-05-10T13:14:21;5.10;;;3.97;;
5137;SDS011;53959;53.626;11.410;2023-05-10T13:16:47;10.40;;;3.30;;
5137;SDS011;53959;53.626;11.410;2023-05-10T13:19:15;4.87;;;3.87;;
5137;SDS011;53959;53.626;11.410;2023-05-10T13:21:42;7.50;;;3.70;;
5137;SDS011;53959;53.626;11.410;2023-05-10T13:24:09;11.20;;;3.80;;
5137;SDS011;53959;53.626;11.410;2023-05-10T13:26:35;4.00;;;3.60;;
5137;SDS011;53959;53.626;11.410;2023-05-10T13:29:01;5.50;;;3.60;;
5137;SDS011;53959;53.626;11.410;2023-05-10T13:31:27;4.50;;;4.10;;
5137;SDS011;53959;53.626;11.410;2023-05-10T13:33:52;5.53;;;3.77;;
5137;SDS011;53959;53.626;11.410;2023-05-10T13:36:18;4.33;;;3.93;;
5137;SDS011;53959;53.626;11.410;2023-05-10T13:38:43;6.33;;;4.23;;
5137;SDS011;53959;53.626;11.410;2023-05-10T13:41:10;5.70;;;4.17;;
5137;SDS011;53959;53.626;11.410;2023-05-10T13:43:35;4.67;;;4.13;;
5137;SDS011;53959;53.626;11.410;2023-05-10T13:46:01;4.23;;;3.93;;
5137;SDS011;53959;53.626;11.410;2023-05-10T13:48:26;10.93;;;4.40;;
5137;SDS011;53959;53.626;11.410;2023-05-10T13:50:52;3.70;;;3.43;;
5137;SDS011;53959;53.626;11.410;2023-05-10T13:53:17;5.57;;;4.03;;
5137;SDS011;53959;53.626;11.410;2023-05-10T13:55:43;4.53;;;4.13;;
5137;SDS011;53959;53.626;11.410;2023-05-10T13:58:08;5.60;;;3.37;;
5137;SDS011;53959;53.626;11.410;2023-05-10T14:00:34;4.23;;;3.50;;
5137;SDS011;53959;53.626;11.410;2023-05-10T14:02:59;5.13;;;3.87;;
5137;SDS011;53959;53.626;11.410;2023-05-10T14:05:24;7.03;;;3.90;;
5137;SDS011;53959;53.626;11.410;2023-05-10T14:07:50;5.57;;;4.20;;
5137;SDS011;53959;53.626;11.410;2023-05-10T14:10:15;4.60;;;3.57;;
5137;SDS011;53959;53.626;11.410;2023-05-10T14:12:41;12.13;;;4.50;;
5137;SDS011;53959;53.626;11.410;2023-05-10T14:15:06;6.90;;;4.13;;
5137;SDS011;53959;53.626;11.410;2023-05-10T14:17:32;6.77;;;3.70;;
5137;SDS011;53959;53.626;11.410;2023-05-10T14:19:57;4.77;;;4.37;;
5137;SDS011;53959;53.626;11.410;2023-05-10T14:22:23;6.27;;;3.93;;
5137;SDS011;53959;53.626;11.410;2023-05-10T14:24:48;9.43;;;3.93;;
5137;SDS011;53959;53.626;11.410;2023-05-10T14:27:14;7.47;;;4.13;;
5137;SDS011;53959;53.626;11.410;2023-05-10T14:29:40;4.20;;;3.83;;
5137;SDS011;53959;53.626;11.410;2023-05-10T14:32:05;8.70;;;4.60;;
5137;SDS011;53959;53.626;11.410;2023-05-10T14:34:31;6.00;;;4.20;;
5137;SDS011;53959;53.626;11.410;2023-05-10T14:36:57;20.10;;;5.20;;
5137;SDS011;53959;53.626;11.410;2023-05-10T14:39:23;6.60;;;4.53;;
5137;SDS011;53959;53.626;11.410;2023-05-10T14:41:48;7.40;;;6.70;;
5137;SDS011;53959;53.626;11.410;2023-05-10T14:44:14;17.43;;;6.37;;
5137;SDS011;53959;53.626;11.410;2023-05-10T14:46:40;8.07;;;5.90;;
5137;SDS011;53959;53.626;11.410;2023-05-10T14:49:07;6.73;;;6.07;;
5137;SDS011;53959;53.626;11.410;2023-05-10T14:51:32;16.87;;;6.50;;
5137;SDS011;53959;53.626;11.410;2023-05-10T14:53:58;9.97;;;5.20;;
5137;SDS011;53959;53.626;11.410;2023-05-10T14:56:23;9.37;;;7.17;;
5137;SDS011;53959;53.626;11.410;2023-05-10T14:58:49;8.00;;;6.80;;
5137;SDS011;53959;53.626;11.410;2023-05-10T15:01:15;11.47;;;6.73;;
5137;SDS011;53959;53.626;11.410;2023-05-10T15:03:40;11.40;;;7.10;;
5137;SDS011;53959;53.626;11.410;2023-05-10T15:06:06;7.33;;;6.30;;
5137;SDS011;53959;53.626;11.410;2023-05-10T15:08:32;9.23;;;6.97;;
5137;SDS011;53959;53.626;11.410;2023-05-10T15:10:58;11.17;;;6.80;;
5137;SDS011;53959;53.626;11.410;2023-05-10T15:13:23;8.20;;;6.97;;
5137;SDS011;53959;53.626;11.410;2023-05-10T15:15:49;14.90;;;7.10;;
5137;SDS011;53959;53.626;11.410;2023-05-10T15:18:14;27.03;;;7.40;;